createdAt,value
2023-04-11T00:01:51.352Z,100490.06
2023-04-11T00:04:20.990Z,100498.91
2023-04-11T00:06:48.416Z,100484.06
2023-04-11T00:09:16.755Z,100489.31
2023-04-11T00:11:43.764Z,100492.94
2023-04-11T00:14:12.575Z,100484.50
2023-04-11T00:16:39.766Z,100477.66
2023-04-11T00:19:09.494Z,100483.13
2023-04-11T00:21:39.856Z,100479.75
2023-04-11T00:24:10.138Z,100473.16
2023-04-11T00:26:36.990Z,100480.59
2023-04-11T00:29:04.030Z,100476.59
2023-04-11T00:31:30.862Z,100468.59
2023-04-11T00:33:58.316Z,100475.34
2023-04-11T00:36:26.759Z,100477.19
2023-04-11T00:38:55.224Z,100474.38
2023-04-11T00:41:22.278Z,100459.56
2023-04-11T00:43:51.429Z,100461.31
2023-04-11T00:46:18.668Z,100457.66
2023-04-11T00:48:46.104Z,100452.41
2023-04-11T00:51:13.405Z,100451.88
2023-04-11T00:53:40.977Z,100449.66
2023-04-11T00:56:09.741Z,100451.53
2023-04-11T00:58:38.468Z,100455.00
2023-04-11T01:01:09.511Z,100458.56
2023-04-11T01:03:38.719Z,100451.38
2023-04-11T01:06:07.437Z,100457.16
2023-04-11T01:08:35.433Z,100451.97
2023-04-11T01:11:03.341Z,100447.00
2023-04-11T01:13:33.135Z,100448.56
2023-04-11T01:16:00.857Z,100439.16
2023-04-11T01:18:27.998Z,100444.00
2023-04-11T01:20:55.079Z,100432.78
2023-04-11T01:23:24.756Z,100433.78
2023-04-11T01:25:52.197Z,100423.06
2023-04-11T01:28:20.381Z,100426.59
2023-04-11T01:30:47.804Z,100427.63
2023-04-11T01:33:16.358Z,100421.47
2023-04-11T01:35:43.821Z,100419.78
2023-04-11T01:38:11.328Z,100412.44
2023-04-11T01:40:38.551Z,100414.19
2023-04-11T01:43:08.185Z,100407.97
2023-04-11T01:45:36.166Z,100405.97
2023-04-11T01:48:09.614Z,100405.44
2023-04-11T01:50:36.449Z,100401.09
2023-04-11T01:53:05.020Z,100394.25
2023-04-11T01:55:31.824Z,100401.25
2023-04-11T01:57:58.903Z,100401.19
2023-04-11T02:00:25.755Z,100400.09
2023-04-11T02:02:53.031Z,100402.72
2023-04-11T02:05:20.593Z,100409.19
2023-04-11T02:07:47.738Z,100402.97
2023-04-11T02:10:14.517Z,100401.41
2023-04-11T02:12:41.671Z,100393.09
2023-04-11T02:15:09.091Z,100393.13
2023-04-11T02:17:36.989Z,100389.88
2023-04-11T02:20:07.080Z,100397.75
2023-04-11T02:22:34.249Z,100393.31
2023-04-11T02:25:01.112Z,100387.09
2023-04-11T02:27:28.190Z,100376.63
2023-04-11T02:29:55.018Z,100379.19
2023-04-11T02:32:22.137Z,100373.00
2023-04-11T02:34:49.049Z,100367.94
2023-04-11T02:37:16.111Z,100374.19
2023-04-11T02:39:42.891Z,100376.94
2023-04-11T02:42:10.021Z,100377.72
2023-04-11T02:44:36.814Z,100381.63
2023-04-11T02:47:03.873Z,100374.00
2023-04-11T02:49:30.619Z,100373.25
2023-04-11T02:51:57.721Z,100375.94
2023-04-11T02:54:24.615Z,100372.34
2023-04-11T02:56:52.800Z,100369.84
2023-04-11T02:59:19.641Z,100373.31
2023-04-11T03:01:46.775Z,100371.63
2023-04-11T03:04:13.667Z,100373.75
2023-04-11T03:06:41.153Z,100375.38
2023-04-11T03:09:07.964Z,100375.53
2023-04-11T03:11:35.011Z,100366.13
2023-04-11T03:14:01.990Z,100368.13
2023-04-11T03:16:29.207Z,100371.69
2023-04-11T03:18:56.353Z,100364.75
2023-04-11T03:21:23.636Z,100363.75
2023-04-11T03:23:50.461Z,100371.03
2023-04-11T03:26:18.628Z,100353.28
2023-04-11T03:28:45.855Z,100357.75
2023-04-11T03:31:13.430Z,100356.91
2023-04-11T03:33:40.579Z,100369.25
2023-04-11T03:36:08.037Z,100371.19
2023-04-11T03:38:34.823Z,100370.97
2023-04-11T03:41:01.903Z,100362.03
2023-04-11T03:43:29.349Z,100356.00
2023-04-11T03:45:56.518Z,100350.09
2023-04-11T03:48:26.577Z,100358.59
2023-04-11T03:50:53.797Z,100361.19
2023-04-11T03:53:20.562Z,100362.66
2023-04-11T03:55:49.096Z,100366.13
2023-04-11T03:58:16.132Z,100360.69
2023-04-11T04:00:43.233Z,100364.91
2023-04-11T04:03:10.252Z,100373.75
2023-04-11T04:05:37.468Z,100363.38
2023-04-11T04:08:04.389Z,100362.59
2023-04-11T04:10:31.557Z,100362.25
2023-04-11T04:12:58.345Z,100364.63
2023-04-11T04:15:25.477Z,100361.47
2023-04-11T04:17:52.411Z,100358.16
2023-04-11T04:20:19.503Z,100352.91
2023-04-11T04:22:47.531Z,100355.09
2023-04-11T04:25:15.875Z,100361.19
2023-04-11T04:27:44.313Z,100357.53
2023-04-11T04:30:15.344Z,100356.75
2023-04-11T04:32:45.900Z,100357.75
2023-04-11T04:35:16.859Z,100358.44
2023-04-11T04:37:46.613Z,100352.13
2023-04-11T04:40:14.129Z,100367.13
2023-04-11T04:42:42.144Z,100367.06
2023-04-11T04:45:10.781Z,100371.41
2023-04-11T04:47:38.564Z,100368.63
2023-04-11T04:50:06.404Z,100369.41
2023-04-11T04:52:33.228Z,100363.16
2023-04-11T04:55:01.288Z,100359.47
2023-04-11T04:57:29.565Z,100354.84
2023-04-11T04:59:57.674Z,100348.47
2023-04-11T05:02:28.041Z,100350.00
2023-04-11T05:04:55.281Z,100348.94
2023-04-11T05:07:22.191Z,100354.53
2023-04-11T05:09:49.318Z,100354.97
2023-04-11T05:12:16.777Z,100344.19
2023-04-11T05:14:43.822Z,100341.06
2023-04-11T05:17:10.849Z,100340.47
2023-04-11T05:19:37.888Z,100330.31
2023-04-11T05:22:04.677Z,100334.06
2023-04-11T05:24:31.770Z,100338.44
2023-04-11T05:26:58.542Z,100331.09
2023-04-11T05:29:25.921Z,100323.69
2023-04-11T05:31:52.737Z,100323.91
2023-04-11T05:34:19.807Z,100322.19
2023-04-11T05:36:47.294Z,100319.66
2023-04-11T05:39:14.357Z,100326.88
2023-04-11T05:41:41.974Z,100326.84
2023-04-11T05:44:09.049Z,100321.31
2023-04-11T05:46:37.353Z,100310.09
2023-04-11T05:49:04.551Z,100321.56
2023-04-11T05:51:31.359Z,100311.13
2023-04-11T05:53:58.744Z,100312.97
2023-04-11T05:56:25.742Z,100311.81
2023-04-11T05:58:53.116Z,100303.16
2023-04-11T06:01:19.890Z,100300.91
2023-04-11T06:03:48.325Z,100301.13
2023-04-11T06:06:15.830Z,100298.41
2023-04-11T06:08:43.037Z,100295.97
2023-04-11T06:11:09.990Z,100284.59
2023-04-11T06:13:37.049Z,100286.94
2023-04-11T06:16:06.133Z,100285.69
2023-04-11T06:18:33.197Z,100289.69
2023-04-11T06:21:02.638Z,100289.44
2023-04-11T06:23:29.686Z,100291.53
2023-04-11T06:25:56.493Z,100285.78
2023-04-11T06:28:23.595Z,100281.34
2023-04-11T06:30:50.418Z,100285.25
2023-04-11T06:33:17.560Z,100284.81
2023-04-11T06:35:44.394Z,100273.56
2023-04-11T06:38:11.513Z,100277.53
2023-04-11T06:40:38.265Z,100279.72
2023-04-11T06:43:05.315Z,100275.69
2023-04-11T06:45:32.148Z,100275.09
2023-04-11T06:47:59.297Z,100274.63
2023-04-11T06:50:26.098Z,100275.63
2023-04-11T06:52:54.382Z,100270.94
2023-04-11T06:55:23.052Z,100266.69
2023-04-11T06:57:50.125Z,100264.41
2023-04-11T07:00:17.336Z,100266.63
2023-04-11T07:02:44.877Z,100270.38
2023-04-11T07:05:12.047Z,100273.38
2023-04-11T07:07:39.735Z,100266.13
2023-04-11T07:10:07.119Z,100264.47
2023-04-11T07:12:34.249Z,100264.06
2023-04-11T07:15:02.731Z,100261.00
2023-04-11T07:17:29.849Z,100246.38
2023-04-11T07:19:56.800Z,100240.00
2023-04-11T07:22:23.930Z,100234.34
2023-04-11T07:24:55.399Z,100241.34
2023-04-11T07:27:23.392Z,100240.94
2023-04-11T07:29:50.705Z,100245.56
2023-04-11T07:32:17.905Z,100237.44
2023-04-11T07:34:44.720Z,100243.34
2023-04-11T07:37:12.523Z,100236.84
2023-04-11T07:39:40.531Z,100244.19
2023-04-11T07:42:08.049Z,100241.53
2023-04-11T07:44:34.849Z,100241.28
2023-04-11T07:47:01.968Z,100242.22
2023-04-11T07:49:28.817Z,100242.66
2023-04-11T07:51:55.890Z,100243.84
2023-04-11T07:54:25.167Z,100240.00
2023-04-11T07:56:52.274Z,100236.25
2023-04-11T07:59:19.256Z,100223.66
2023-04-11T08:01:57.496Z,100235.97
2023-04-11T08:04:24.486Z,100228.50
2023-04-11T08:06:52.047Z,100226.06
2023-04-11T08:09:19.285Z,100222.97
2023-04-11T08:11:46.366Z,100217.19
2023-04-11T08:14:13.188Z,100220.97
2023-04-11T08:16:40.336Z,100224.94
2023-04-11T08:19:07.346Z,100216.69
2023-04-11T08:21:34.439Z,100215.16
2023-04-11T08:24:01.205Z,100202.25
2023-04-11T08:26:28.298Z,100203.88
2023-04-11T08:28:55.211Z,100199.38
2023-04-11T08:31:23.044Z,100198.91
2023-04-11T08:33:50.674Z,100192.31
2023-04-11T08:36:20.271Z,100184.78
2023-04-11T08:38:47.082Z,100173.75
2023-04-11T08:41:14.543Z,100175.56
2023-04-11T08:43:41.385Z,100170.44
2023-04-11T08:46:08.818Z,100157.81
2023-04-11T08:48:36.169Z,100149.22
2023-04-11T08:51:03.256Z,100141.25
2023-04-11T08:53:30.909Z,100146.56
2023-04-11T08:55:59.937Z,100137.53
2023-04-11T08:58:26.841Z,100135.84
2023-04-11T09:00:53.928Z,100128.59
2023-04-11T09:03:20.973Z,100117.38
2023-04-11T09:05:48.488Z,100123.16
2023-04-11T09:08:16.846Z,100125.25
2023-04-11T09:10:45.605Z,100120.97
2023-04-11T09:13:28.057Z,100124.13
2023-04-11T09:16:09.672Z,100121.34
2023-04-11T09:18:39.485Z,100125.22
2023-04-11T09:21:11.755Z,100124.00
2023-04-11T09:23:39.405Z,100113.41
2023-04-11T09:26:08.594Z,100109.66
2023-04-11T09:28:43.310Z,100103.88
2023-04-11T09:31:13.283Z,100105.81
2023-04-11T09:33:57.593Z,100094.56
2023-04-11T09:36:29.174Z,100088.91
2023-04-11T09:38:56.527Z,100082.84
2023-04-11T09:41:35.987Z,100076.97
2023-04-11T09:44:02.932Z,100095.19
2023-04-11T09:46:30.134Z,100081.31
2023-04-11T09:49:01.838Z,100089.91
2023-04-11T09:51:36.519Z,100083.31
2023-04-11T09:54:05.473Z,100079.53
2023-04-11T09:56:36.386Z,100082.22
2023-04-11T09:59:04.384Z,100079.69
2023-04-11T10:01:32.571Z,100065.19
2023-04-11T10:04:00.987Z,100067.31
2023-04-11T10:06:38.941Z,100061.34
2023-04-11T10:09:11.759Z,100063.56
2023-04-11T10:11:43.418Z,100065.06
2023-04-11T10:14:39.193Z,100056.41
2023-04-11T10:17:23.543Z,100057.50
2023-04-11T10:19:56.598Z,100052.16
2023-04-11T10:22:43.290Z,100044.94
2023-04-11T10:25:21.765Z,100043.72
2023-04-11T10:27:53.708Z,100045.81
2023-04-11T10:30:40.845Z,100024.69
2023-04-11T10:33:14.907Z,100011.06
2023-04-11T10:36:02.000Z,100009.41
2023-04-11T10:38:41.958Z,100007.72
2023-04-11T10:41:27.769Z,100006.47
2023-04-11T10:44:15.017Z,100002.09
2023-04-11T10:47:00.018Z,99990.19
2023-04-11T10:49:34.364Z,99991.84
2023-04-11T10:52:24.386Z,100000.38
2023-04-11T10:54:53.414Z,99992.22
2023-04-11T10:57:21.750Z,99983.13
2023-04-11T10:59:51.801Z,99984.34
2023-04-11T11:02:21.973Z,99975.09
2023-04-11T11:04:49.740Z,99968.47
2023-04-11T11:07:17.410Z,99959.88
2023-04-11T11:09:51.376Z,99957.03
2023-04-11T11:12:18.399Z,99959.03
2023-04-11T11:14:47.127Z,99946.00
2023-04-11T11:17:16.412Z,99951.16
2023-04-11T11:19:47.905Z,99942.94
2023-04-11T11:22:19.265Z,99941.41
2023-04-11T11:24:46.428Z,99929.97
2023-04-11T11:27:24.117Z,99926.84
2023-04-11T11:29:52.018Z,99931.88
2023-04-11T11:32:30.004Z,99915.09
2023-04-11T11:34:57.691Z,99919.75
2023-04-11T11:37:28.177Z,99911.22
2023-04-11T11:39:55.428Z,99924.72
2023-04-11T11:42:22.331Z,99922.97
2023-04-11T11:44:49.476Z,99924.59
2023-04-11T11:47:16.316Z,99923.88
2023-04-11T11:49:54.307Z,99916.03
2023-04-11T11:52:40.465Z,99910.59
2023-04-11T11:58:01.335Z,99899.09
2023-04-11T12:00:30.483Z,99907.34
2023-04-11T12:02:59.841Z,99910.53
2023-04-11T12:05:30.408Z,99910.75
2023-04-11T12:07:59.550Z,99907.03
2023-04-11T12:11:02.734Z,99904.38
2023-04-11T12:13:31.291Z,99901.09
2023-04-11T12:16:01.648Z,99901.88
2023-04-11T12:18:28.797Z,99903.28
2023-04-11T12:20:55.999Z,99891.16
2023-04-11T12:23:22.995Z,99910.78
2023-04-11T12:25:50.285Z,99904.75
2023-04-11T12:28:17.169Z,99892.88
2023-04-11T12:30:44.261Z,99895.63
2023-04-11T12:33:11.120Z,99889.47
2023-04-11T12:35:38.243Z,99895.16
2023-04-11T12:38:05.054Z,99888.22
2023-04-11T12:40:32.173Z,99885.44
2023-04-11T12:42:59.045Z,99891.84
2023-04-11T12:45:26.486Z,99870.66
2023-04-11T12:47:53.734Z,99873.69
2023-04-11T12:50:23.837Z,99867.00
2023-04-11T12:52:51.483Z,99877.97
2023-04-11T12:55:18.834Z,99869.88
2023-04-11T12:57:45.990Z,99870.91
2023-04-11T13:00:13.840Z,99865.28
2023-04-11T13:02:44.627Z,99856.72
2023-04-11T13:05:16.977Z,99847.94
2023-04-11T13:07:45.355Z,99853.44
2023-04-11T13:10:14.283Z,99845.81
2023-04-11T13:12:44.304Z,99842.59
2023-04-11T13:15:13.401Z,99831.41
2023-04-11T13:17:40.346Z,99827.59
2023-04-11T13:20:10.448Z,99830.97
2023-04-11T13:22:38.720Z,99831.22
2023-04-11T13:25:07.008Z,99826.75
2023-04-11T13:27:34.558Z,99819.81
2023-04-11T13:30:02.039Z,99812.50
2023-04-11T13:32:29.084Z,99818.16
2023-04-11T13:34:56.719Z,99816.06
2023-04-11T13:37:24.176Z,99815.78
2023-04-11T13:39:51.262Z,99806.75
2023-04-11T13:42:18.055Z,99805.16
2023-04-11T13:44:45.194Z,99805.13
2023-04-11T13:47:12.041Z,99795.22
2023-04-11T13:49:39.117Z,99793.31
2023-04-11T13:52:05.947Z,99796.50
2023-04-11T13:54:41.965Z,99792.47
2023-04-11T13:57:09.665Z,99787.59
2023-04-11T13:59:36.902Z,99799.41
2023-04-11T14:02:04.021Z,99789.13
2023-04-11T14:04:31.440Z,99789.72
2023-04-11T14:06:58.464Z,99786.00
2023-04-11T14:09:25.628Z,99791.31
2023-04-11T14:11:52.805Z,99784.44
2023-04-11T14:14:19.903Z,99789.28
2023-04-11T14:16:46.828Z,99783.53
2023-04-11T14:19:13.914Z,99787.31
2023-04-11T14:21:40.786Z,99797.19
2023-04-11T14:24:08.155Z,99799.31
2023-04-11T14:26:34.949Z,99799.13
2023-04-11T14:29:02.792Z,99795.63
2023-04-11T14:31:29.751Z,99801.63
2023-04-11T14:33:57.274Z,99811.91
2023-04-11T14:36:24.349Z,99810.41
2023-04-11T14:38:51.536Z,99816.88
2023-04-11T14:41:19.316Z,99825.56
2023-04-11T14:43:46.408Z,99834.75
2023-04-11T14:46:13.292Z,99836.78
2023-04-11T14:48:40.540Z,99843.16
2023-04-11T14:51:07.640Z,99846.59
2023-04-11T14:53:34.704Z,99838.72
2023-04-11T14:56:04.763Z,99851.56
2023-04-11T14:58:34.160Z,99852.34
2023-04-11T15:01:01.092Z,99846.53
2023-04-11T15:03:28.478Z,99859.38
2023-04-11T15:05:55.521Z,99848.84
2023-04-11T15:08:22.636Z,99858.03
2023-04-11T15:10:53.998Z,99863.50
2023-04-11T15:13:22.301Z,99861.47
2023-04-11T15:15:49.188Z,99861.88
2023-04-11T15:18:30.050Z,99862.78
2023-04-11T15:20:58.982Z,99853.28
2023-04-11T15:23:26.439Z,99866.75
2023-04-11T15:25:54.471Z,99867.00
2023-04-11T15:28:23.171Z,99884.56
2023-04-11T15:30:52.100Z,99882.31
2023-04-11T15:33:21.030Z,99872.34
2023-04-11T15:35:48.152Z,99884.31
2023-04-11T15:38:18.041Z,99886.38
2023-04-11T15:40:44.930Z,99897.84
2023-04-11T15:43:12.052Z,99895.13
2023-04-11T15:45:39.865Z,99891.50
2023-04-11T15:48:07.019Z,99894.59
2023-04-11T15:50:33.869Z,99891.25
2023-04-11T15:53:01.071Z,99891.50
2023-04-11T15:55:28.655Z,99893.94
2023-04-11T15:57:56.597Z,99892.78
2023-04-11T16:00:23.710Z,99899.00
2023-04-11T16:02:51.360Z,99899.22
2023-04-11T16:05:20.925Z,99888.75
2023-04-11T16:07:48.665Z,99895.72
2023-04-11T16:10:15.846Z,99898.06
2023-04-11T16:12:42.956Z,99904.38
2023-04-11T16:15:10.151Z,99902.56
2023-04-11T16:17:37.289Z,99896.56
2023-04-11T16:20:08.838Z,99890.84
2023-04-11T16:22:37.595Z,99893.81
2023-04-11T16:25:05.785Z,99886.00
2023-04-11T16:27:33.175Z,99880.72
2023-04-11T16:30:01.439Z,99882.13
2023-04-11T16:32:31.563Z,99880.84
2023-04-11T16:34:59.781Z,99876.41
2023-04-11T16:37:27.333Z,99879.06
2023-04-11T16:39:54.276Z,99872.59
2023-04-11T16:42:22.737Z,99872.81
2023-04-11T16:44:49.550Z,99870.19
2023-04-11T16:47:16.676Z,99872.53
2023-04-11T16:49:45.078Z,99873.13
2023-04-11T16:52:13.639Z,99870.50
2023-04-11T16:54:42.386Z,99867.25
2023-04-11T16:57:12.337Z,99865.09
2023-04-11T16:59:39.257Z,99865.44
2023-04-11T17:02:06.999Z,99868.69
2023-04-11T17:04:34.043Z,99858.78
2023-04-11T17:07:01.249Z,99867.75
2023-04-11T17:09:28.172Z,99863.75
2023-04-11T17:11:55.291Z,99864.59
2023-04-11T17:14:22.149Z,99858.25
2023-04-11T17:16:49.346Z,99860.16
2023-04-11T17:19:16.216Z,99861.31
2023-04-11T17:21:44.859Z,99854.13
2023-04-11T17:24:11.694Z,99860.06
2023-04-11T17:26:38.971Z,99865.22
2023-04-11T17:29:06.641Z,99861.09
2023-04-11T17:31:34.078Z,99856.47
2023-04-11T17:34:01.109Z,99857.06
2023-04-11T17:36:28.879Z,99862.47
2023-04-11T17:38:55.909Z,99858.69
2023-04-11T17:41:23.066Z,99861.75
2023-04-11T17:43:50.104Z,99853.81
2023-04-11T17:46:17.291Z,99848.34
2023-04-11T17:48:44.212Z,99855.19
2023-04-11T17:51:11.344Z,99853.50
2023-04-11T17:53:38.230Z,99853.72
2023-04-11T17:56:05.996Z,99862.03
2023-04-11T17:58:33.644Z,99856.78
2023-04-11T18:01:00.858Z,99846.03
2023-04-11T18:03:28.328Z,99851.31
2023-04-11T18:05:56.635Z,99851.06
2023-04-11T18:08:42.393Z,99850.34
2023-04-11T18:11:13.232Z,99844.75
2023-04-11T18:13:42.813Z,99856.78
2023-04-11T18:16:10.305Z,99857.94
2023-04-11T18:18:39.822Z,99857.41
2023-04-11T18:21:08.042Z,99861.13
2023-04-11T18:23:35.671Z,99862.38
2023-04-11T18:26:02.750Z,99865.44
2023-04-11T18:28:30.415Z,99862.59
2023-04-11T18:30:57.549Z,99867.09
2023-04-11T18:33:24.551Z,99871.22
2023-04-11T18:35:51.803Z,99871.44
2023-04-11T18:38:18.785Z,99876.16
2023-04-11T18:40:46.237Z,99874.88
2023-04-11T18:43:13.455Z,99874.28
2023-04-11T18:45:42.288Z,99887.69
2023-04-11T18:48:09.699Z,99876.72
2023-04-11T18:50:42.865Z,99878.69
2023-04-11T18:53:13.572Z,99876.25
2023-04-11T18:55:41.475Z,99876.56
2023-04-11T18:58:10.058Z,99871.38
2023-04-11T19:00:39.140Z,99862.63
2023-04-11T19:03:06.950Z,99865.38
2023-04-11T19:05:34.688Z,99875.72
2023-04-11T19:08:01.700Z,99872.72
2023-04-11T19:10:28.849Z,99872.28
2023-04-11T19:12:55.721Z,99868.25
2023-04-11T19:15:22.916Z,99877.31
2023-04-11T19:17:49.987Z,99878.34
2023-04-11T19:20:17.769Z,99879.94
2023-04-11T19:22:46.283Z,99879.19
2023-04-11T19:25:14.708Z,99865.78
2023-04-11T19:27:42.490Z,99867.56
2023-04-11T19:30:13.501Z,99862.06
2023-04-11T19:32:43.436Z,99872.38
2023-04-11T19:35:12.000Z,99862.56
2023-04-11T19:37:39.321Z,99869.63
2023-04-11T19:40:07.616Z,99869.84
2023-04-11T19:42:37.177Z,99873.00
2023-04-11T19:45:05.180Z,99888.34
2023-04-11T19:47:32.865Z,99880.09
2023-04-11T19:50:00.877Z,99880.09
2023-04-11T19:52:28.711Z,99877.19
2023-04-11T19:54:56.985Z,99864.03
2023-04-11T19:57:27.249Z,99862.53
2023-04-11T19:59:54.406Z,99868.84
2023-04-11T20:02:21.485Z,99867.25
2023-04-11T20:04:49.576Z,99880.50
2023-04-11T20:07:16.742Z,99870.28
2023-04-11T20:09:43.863Z,99863.38
2023-04-11T20:12:10.836Z,99858.44
2023-04-11T20:14:38.374Z,99861.22
2023-04-11T20:17:06.292Z,99853.72
2023-04-11T20:19:37.643Z,99851.84
2023-04-11T20:22:04.983Z,99861.59
2023-04-11T20:24:32.149Z,99858.22
2023-04-11T20:26:58.903Z,99878.63
2023-04-11T20:29:30.902Z,99870.44
2023-04-11T20:31:58.435Z,99882.59
2023-04-11T20:34:25.533Z,99886.34
2023-04-11T20:36:52.506Z,99888.13
2023-04-11T20:39:19.596Z,99880.69
2023-04-11T20:41:46.433Z,99863.75
2023-04-11T20:44:17.056Z,99856.81
2023-04-11T20:46:44.506Z,99857.13
2023-04-11T20:49:18.236Z,99841.25
2023-04-11T20:51:48.327Z,99845.94
2023-04-11T20:54:15.606Z,99841.72
2023-04-11T20:56:42.912Z,99833.25
2023-04-11T20:59:11.913Z,99823.56
2023-04-11T21:01:39.013Z,99809.00
2023-04-11T21:04:06.971Z,99797.00
2023-04-11T21:06:33.852Z,99815.59
2023-04-11T21:09:02.702Z,99822.16
2023-04-11T21:11:29.594Z,99827.50
2023-04-11T21:13:56.802Z,99820.56
2023-04-11T21:16:23.902Z,99820.25
2023-04-11T21:18:51.085Z,99810.50
2023-04-11T21:21:17.911Z,99818.00
2023-04-11T21:23:45.046Z,99820.13
2023-04-11T21:26:11.935Z,99820.56
2023-04-11T21:28:39.035Z,99814.16
2023-04-11T21:31:06.223Z,99826.81
2023-04-11T21:33:33.276Z,99823.81
2023-04-11T21:36:00.169Z,99821.06
2023-04-11T21:38:27.248Z,99826.22
2023-04-11T21:40:54.023Z,99823.59
2023-04-11T21:43:21.056Z,99823.13
2023-04-11T21:45:47.809Z,99821.78
2023-04-11T21:48:14.995Z,99824.25
2023-04-11T21:50:41.871Z,99824.69
2023-04-11T21:53:08.911Z,99837.66
2023-04-11T21:55:35.704Z,99834.28
2023-04-11T21:58:02.828Z,99854.81
2023-04-11T22:00:29.614Z,99836.56
2023-04-11T22:02:56.789Z,99845.81
2023-04-11T22:05:23.992Z,99843.09
2023-04-11T22:07:51.333Z,99846.72
2023-04-11T22:10:23.591Z,99838.25
2023-04-11T22:12:53.860Z,99849.59
2023-04-11T22:15:20.891Z,99850.13
2023-04-11T22:17:50.844Z,99847.84
2023-04-11T22:20:18.458Z,99838.19
2023-04-11T22:22:45.605Z,99834.06
2023-04-11T22:25:12.419Z,99835.56
2023-04-11T22:27:39.577Z,99821.19
2023-04-11T22:30:07.612Z,99838.72
2023-04-11T22:32:34.801Z,99831.94
2023-04-11T22:35:01.798Z,99830.16
2023-04-11T22:37:28.881Z,99823.41
2023-04-11T22:39:55.786Z,99822.78
2023-04-11T22:42:25.847Z,99809.81
2023-04-11T22:44:52.652Z,99796.47
2023-04-11T22:47:21.757Z,99793.00
2023-04-11T22:49:48.648Z,99781.16
2023-04-11T22:52:18.919Z,99787.47
2023-04-11T22:54:46.904Z,99780.78
2023-04-11T22:57:13.928Z,99780.25
2023-04-11T22:59:40.812Z,99762.75
2023-04-11T23:02:08.548Z,99759.56
2023-04-11T23:04:35.695Z,99741.34
2023-04-11T23:07:05.050Z,99752.03
2023-04-11T23:09:32.220Z,99760.97
2023-04-11T23:11:59.286Z,99754.34
2023-04-11T23:14:31.060Z,99758.00
2023-04-11T23:16:58.353Z,99747.50
2023-04-11T23:19:25.399Z,99764.16
2023-04-11T23:21:53.251Z,99766.94
2023-04-11T23:24:20.580Z,99750.38
2023-04-11T23:26:47.654Z,99749.94
2023-04-11T23:29:14.832Z,99743.66
2023-04-11T23:31:42.279Z,99754.31
2023-04-11T23:34:10.014Z,99748.47
2023-04-11T23:36:37.623Z,99758.72
2023-04-11T23:39:05.362Z,99759.03
2023-04-11T23:41:32.441Z,99753.03
2023-04-11T23:43:59.555Z,99758.28
2023-04-11T23:46:27.331Z,99767.91
2023-04-11T23:48:54.161Z,99766.53
2023-04-11T23:51:21.530Z,99767.13
2023-04-11T23:53:48.536Z,99757.66
2023-04-11T23:56:15.980Z,99752.06
2023-04-11T23:58:42.829Z,99764.16
